Time;durP1;ratioP1;P1;durP2;ratioP2;P2;SDS_P1;SDS_P2;PMS_P1;PMS_P2;Temp;Humidity;BMP_temperature;BMP_pressure;BME280_temperature;BME280_humidity;BME280_pressure;Samples;Min_cycle;Max_cycle;Signal;HPM_P1;HPM_P2
2022/03/21 00:00:35;;;;;;;42.92;37.70;;;;;;;;;;5066729;28;20052;-82
2022/03/21 00:03:01;;;;;;;42.67;37.55;;;;;;;;;;5047106;28;20098;-80
2022/03/21 00:05:29;;;;;;;44.00;37.33;;;;;;;;;;5067459;28;20045;-81
2022/03/21 00:07:56;;;;;;;43.67;37.97;;;;;;;;;;5065359;28;20729;-80
2022/03/21 00:10:22;;;;;;;45.95;37.50;;;;;;;;;;5061167;28;20037;-80
2022/03/21 00:12:49;;;;;;;44.20;38.72;;;;;;;;;;5044362;28;20072;-80
2022/03/21 00:15:15;;;;;;;46.13;37.47;;;;;;;;;;5041819;28;20138;-80
2022/03/21 00:17:41;;;;;;;42.80;37.28;;;;;;;;;;5049824;28;20043;-79
2022/03/21 00:20:11;;;;;;;44.95;37.53;;;;;;;;;;5080985;28;20036;-80
2022/03/21 00:22:38;;;;;;;47.65;38.42;;;;;;;;;;5066014;28;20557;-80
2022/03/21 00:25:05;;;;;;;44.30;38.13;;;;;;;;;;5072692;28;20048;-80
2022/03/21 00:27:32;;;;;;;42.83;37.20;;;;;;;;;;5063389;28;20496;-80
2022/03/21 00:29:58;;;;;;;45.10;38.08;;;;;;;;;;5043326;28;20036;-80
2022/03/21 00:32:25;;;;;;;43.80;38.42;;;;;;;;;;5061105;28;20036;-80
2022/03/21 00:34:51;;;;;;;46.85;38.63;;;;;;;;;;5064465;28;20492;-80
2022/03/21 00:37:17;;;;;;;43.75;38.42;;;;;;;;;;5051753;28;20042;-79
2022/03/21 00:39:43;;;;;;;46.28;38.25;;;;;;;;;;5053703;28;20098;-80
2022/03/21 00:42:10;;;;;;;46.72;38.92;;;;;;;;;;5050487;28;20504;-80
2022/03/21 00:44:37;;;;;;;46.00;38.78;;;;;;;;;;5058494;28;20044;-80
2022/03/21 00:47:03;;;;;;;47.65;39.65;;;;;;;;;;5065793;28;20044;-81
2022/03/21 00:49:29;;;;;;;49.05;40.67;;;;;;;;;;5065764;28;20523;-80
2022/03/21 00:51:55;;;;;;;46.85;40.75;;;;;;;;;;5073744;28;20170;-80
2022/03/21 00:54:21;;;;;;;45.47;39.28;;;;;;;;;;5060053;28;20079;-80
2022/03/21 00:56:47;;;;;;;43.97;38.60;;;;;;;;;;5049882;28;20048;-80
2022/03/21 00:59:13;;;;;;;44.08;38.88;;;;;;;;;;5051843;28;20044;-80
2022/03/21 01:01:39;;;;;;;45.38;37.72;;;;;;;;;;5049204;28;20381;-80
2022/03/21 01:04:05;;;;;;;42.50;37.85;;;;;;;;;;5047630;28;20033;-80
2022/03/21 01:06:31;;;;;;;46.22;39.28;;;;;;;;;;5068432;28;20048;-80
2022/03/21 01:08:57;;;;;;;44.28;37.63;;;;;;;;;;5050247;28;20079;-80
2022/03/21 01:11:23;;;;;;;43.83;37.75;;;;;;;;;;5067198;28;20049;-80
2022/03/21 01:13:51;;;;;;;43.70;37.67;;;;;;;;;;5067347;28;20055;-79
2022/03/21 01:16:17;;;;;;;41.65;37.13;;;;;;;;;;5050392;28;20079;-80
2022/03/21 01:18:45;;;;;;;43.30;37.03;;;;;;;;;;5049408;28;20075;-80
2022/03/21 01:21:12;;;;;;;42.53;37.53;;;;;;;;;;5067896;28;20041;-80
2022/03/21 01:23:38;;;;;;;40.95;35.50;;;;;;;;;;5064499;28;20056;-80
2022/03/21 01:26:04;;;;;;;41.90;36.80;;;;;;;;;;5056273;28;20040;-80
2022/03/21 01:28:31;;;;;;;43.53;38.00;;;;;;;;;;5050954;28;20075;-80
2022/03/21 01:30:57;;;;;;;41.50;36.83;;;;;;;;;;5045144;28;20568;-80
2022/03/21 01:33:23;;;;;;;42.42;37.83;;;;;;;;;;5047336;28;20041;-80
2022/03/21 01:35:49;;;;;;;41.13;36.17;;;;;;;;;;5072691;28;20086;-80
2022/03/21 01:38:15;;;;;;;43.53;36.42;;;;;;;;;;5051359;28;20040;-79
2022/03/21 01:40:41;;;;;;;41.78;37.20;;;;;;;;;;5050000;28;20045;-79
2022/03/21 01:43:13;;;;;;;43.38;38.17;;;;;;;;;;5052422;28;20056;-80
2022/03/21 01:45:39;;;;;;;42.97;37.70;;;;;;;;;;5048988;28;20049;-80
2022/03/21 01:48:06;;;;;;;42.17;37.63;;;;;;;;;;5049326;28;20063;-80
2022/03/21 01:50:32;;;;;;;40.88;36.13;;;;;;;;;;5049414;28;20427;-80
2022/03/21 01:55:44;;;;;;;41.20;36.72;;;;;;;;;;5050424;28;20057;-80
2022/03/21 01:58:13;;;;;;;41.42;36.50;;;;;;;;;;5074049;28;20044;-80
2022/03/21 02:00:39;;;;;;;40.63;36.22;;;;;;;;;;5058821;28;20796;-80
2022/03/21 02:03:05;;;;;;;41.28;36.30;;;;;;;;;;5049124;28;20114;-80
2022/03/21 02:05:38;;;;;;;42.88;38.13;;;;;;;;;;5073289;28;20076;-79
2022/03/21 02:08:04;;;;;;;42.83;37.08;;;;;;;;;;5064676;28;20467;-80
2022/03/21 02:10:33;;;;;;;41.15;36.70;;;;;;;;;;5071753;28;20127;-80
2022/03/21 02:13:00;;;;;;;40.47;36.15;;;;;;;;;;5042386;28;20056;-80
2022/03/21 02:15:26;;;;;;;42.30;36.50;;;;;;;;;;5045000;28;20052;-80
2022/03/21 02:17:57;;;;;;;42.22;36.45;;;;;;;;;;5047858;28;20511;-80
2022/03/21 02:20:24;;;;;;;40.60;35.47;;;;;;;;;;5045526;28;20054;-80
2022/03/21 02:23:08;;;;;;;40.58;36.17;;;;;;;;;;5042474;28;20700;-79
2022/03/21 02:25:35;;;;;;;41.22;36.80;;;;;;;;;;5051950;28;20061;-80
2022/03/21 02:28:03;;;;;;;40.78;35.97;;;;;;;;;;5049229;28;20043;-80
2022/03/21 02:30:30;;;;;;;41.40;36.35;;;;;;;;;;5050622;28;20044;-80
2022/03/21 02:32:57;;;;;;;41.35;36.60;;;;;;;;;;5068102;28;20048;-79
2022/03/21 02:35:24;;;;;;;43.10;36.90;;;;;;;;;;5044605;28;20044;-80
2022/03/21 02:37:51;;;;;;;43.40;35.75;;;;;;;;;;5057443;28;20048;-79
2022/03/21 02:40:17;;;;;;;41.47;36.63;;;;;;;;;;5066508;28;20036;-80
2022/03/21 02:42:43;;;;;;;42.55;36.97;;;;;;;;;;5071027;28;20110;-80
2022/03/21 02:45:10;;;;;;;42.42;37.83;;;;;;;;;;5051955;28;20143;-80
2022/03/21 02:47:36;;;;;;;43.05;36.42;;;;;;;;;;5053318;28;20466;-79
2022/03/21 02:50:03;;;;;;;39.90;34.88;;;;;;;;;;5053740;28;20072;-80
2022/03/21 02:52:29;;;;;;;41.55;37.05;;;;;;;;;;5066078;28;20428;-80
2022/03/21 02:54:56;;;;;;;42.17;37.60;;;;;;;;;;5067390;28;20052;-79
2022/03/21 02:57:22;;;;;;;40.60;35.13;;;;;;;;;;5071853;28;20041;-80
2022/03/21 02:59:49;;;;;;;40.58;35.70;;;;;;;;;;5074850;28;20044;-80
2022/03/21 03:02:15;;;;;;;41.20;35.42;;;;;;;;;;5051598;28;20044;-79
2022/03/21 03:04:41;;;;;;;40.35;34.95;;;;;;;;;;5088223;28;20045;-79
2022/03/21 03:07:07;;;;;;;42.58;35.72;;;;;;;;;;5084529;28;20047;-80
2022/03/21 03:09:33;;;;;;;41.78;36.30;;;;;;;;;;5045368;28;20082;-80
2022/03/21 03:12:00;;;;;;;41.42;36.35;;;;;;;;;;5053330;28;20048;-79
2022/03/21 03:14:26;;;;;;;39.05;34.88;;;;;;;;;;5055307;28;20429;-79
2022/03/21 03:16:52;;;;;;;39.50;34.38;;;;;;;;;;5051922;28;20135;-79
2022/03/21 03:19:18;;;;;;;40.05;35.88;;;;;;;;;;5070255;28;20110;-79
2022/03/21 03:21:47;;;;;;;39.70;35.38;;;;;;;;;;5068136;28;20045;-79
2022/03/21 03:24:13;;;;;;;42.03;35.38;;;;;;;;;;5070283;28;20496;-79
2022/03/21 03:26:39;;;;;;;39.78;35.13;;;;;;;;;;5070709;28;20044;-79
2022/03/21 03:29:05;;;;;;;40.10;35.75;;;;;;;;;;5069770;28;20041;-79
2022/03/21 03:31:32;;;;;;;40.20;34.75;;;;;;;;;;5066654;28;20055;-79
2022/03/21 03:34:01;;;;;;;40.20;35.85;;;;;;;;;;5067666;28;20147;-79
2022/03/21 03:36:27;;;;;;;41.10;34.47;;;;;;;;;;5046772;28;20041;-79
2022/03/21 03:38:53;;;;;;;43.47;36.38;;;;;;;;;;5049486;28;20050;-79
2022/03/21 03:41:19;;;;;;;41.85;36.67;;;;;;;;;;5059898;28;20120;-79
2022/03/21 03:43:47;;;;;;;41.10;36.42;;;;;;;;;;5050447;28;20507;-78
2022/03/21 03:46:14;;;;;;;39.35;35.08;;;;;;;;;;5053276;28;20055;-79
2022/03/21 03:48:41;;;;;;;40.30;35.60;;;;;;;;;;5060562;28;20477;-79
2022/03/21 03:51:07;;;;;;;40.28;35.35;;;;;;;;;;5060984;28;20041;-80
2022/03/21 03:53:33;;;;;;;39.85;35.10;;;;;;;;;;5066885;28;20401;-80
2022/03/21 03:55:59;;;;;;;39.08;33.97;;;;;;;;;;5050206;28;20047;-79
2022/03/21 03:58:25;;;;;;;38.95;34.55;;;;;;;;;;5070536;28;20048;-79
2022/03/21 04:00:51;;;;;;;40.05;35.60;;;;;;;;;;5067161;28;20040;-79
2022/03/21 04:06:03;;;;;;;39.63;35.33;;;;;;;;;;5076777;28;20136;-80
2022/03/21 04:08:29;;;;;;;41.55;37.00;;;;;;;;;;5066270;28;20105;-79
2022/03/21 04:10:55;;;;;;;41.25;36.58;;;;;;;;;;5071187;28;20149;-80
2022/03/21 04:13:21;;;;;;;42.13;37.28;;;;;;;;;;5080289;28;20048;-79
2022/03/21 04:15:47;;;;;;;42.40;36.15;;;;;;;;;;5055294;28;20119;-79
2022/03/21 04:18:13;;;;;;;40.63;35.83;;;;;;;;;;5074001;28;20041;-78
2022/03/21 04:20:40;;;;;;;40.92;35.97;;;;;;;;;;5070309;28;20472;-79
2022/03/21 04:23:07;;;;;;;41.63;36.45;;;;;;;;;;5065195;28;20049;-79
2022/03/21 04:25:33;;;;;;;41.28;35.40;;;;;;;;;;5062663;28;20067;-79
2022/03/21 04:28:00;;;;;;;43.25;37.17;;;;;;;;;;5048374;28;20068;-79
2022/03/21 04:30:26;;;;;;;41.38;35.55;;;;;;;;;;5071700;28;20496;-79
2022/03/21 04:32:55;;;;;;;41.60;37.08;;;;;;;;;;5066104;28;20588;-79
2022/03/21 04:35:21;;;;;;;43.35;36.97;;;;;;;;;;5068642;28;20083;-79
2022/03/21 04:37:47;;;;;;;41.13;36.63;;;;;;;;;;5044561;28;20064;-79
2022/03/21 04:40:13;;;;;;;41.83;35.97;;;;;;;;;;5042838;28;20033;-79
2022/03/21 04:42:40;;;;;;;41.58;36.53;;;;;;;;;;5048472;28;20036;-80
2022/03/21 04:45:07;;;;;;;42.00;36.33;;;;;;;;;;5052270;28;20056;-80
2022/03/21 04:47:34;;;;;;;41.95;37.38;;;;;;;;;;5068521;28;20098;-79
2022/03/21 04:50:00;;;;;;;40.85;36.00;;;;;;;;;;5049777;28;20090;-79
2022/03/21 04:52:29;;;;;;;42.00;36.85;;;;;;;;;;5056078;28;20131;-79
2022/03/21 04:54:55;;;;;;;44.28;36.90;;;;;;;;;;5066826;28;20443;-79
2022/03/21 04:57:22;;;;;;;42.75;35.97;;;;;;;;;;5070237;28;20045;-79
2022/03/21 04:59:48;;;;;;;43.30;37.38;;;;;;;;;;5064754;28;20098;-79
2022/03/21 05:02:15;;;;;;;43.85;36.35;;;;;;;;;;5057676;28;20044;-79
2022/03/21 05:04:41;;;;;;;44.03;36.10;;;;;;;;;;5071686;28;20560;-79
2022/03/21 05:07:07;;;;;;;45.70;36.58;;;;;;;;;;5070089;28;20127;-79
2022/03/21 05:09:33;;;;;;;44.53;37.85;;;;;;;;;;5050089;28;20048;-79
2022/03/21 05:11:59;;;;;;;44.28;36.95;;;;;;;;;;5075229;28;20060;-79
2022/03/21 05:14:25;;;;;;;40.33;35.92;;;;;;;;;;5070264;28;20098;-79
2022/03/21 05:16:51;;;;;;;42.55;37.25;;;;;;;;;;5048191;28;20052;-79
2022/03/21 05:19:17;;;;;;;44.15;37.75;;;;;;;;;;5069470;28;20048;-79
2022/03/21 05:21:43;;;;;;;44.92;37.17;;;;;;;;;;5049248;28;20133;-79
2022/03/21 05:32:25;;;;;;;42.15;37.55;;;;;;;;;;5047838;28;20056;-79
2022/03/21 05:37:37;;;;;;;46.13;38.85;;;;;;;;;;5058976;28;20071;-79
2022/03/21 05:42:50;;;;;;;45.78;37.70;;;;;;;;;;5064702;28;20118;-79
2022/03/21 05:45:19;;;;;;;41.22;36.22;;;;;;;;;;5065024;28;20072;-79
2022/03/21 05:50:32;;;;;;;43.45;37.55;;;;;;;;;;5068493;28;20044;-79
2022/03/21 05:52:58;;;;;;;43.55;37.17;;;;;;;;;;5062529;28;20046;-79
2022/03/21 05:55:24;;;;;;;46.00;38.65;;;;;;;;;;5068319;28;20028;-79
2022/03/21 05:57:50;;;;;;;45.13;39.42;;;;;;;;;;5067106;28;20249;-80
2022/03/21 06:00:22;;;;;;;45.60;40.13;;;;;;;;;;5067565;28;20052;-79
2022/03/21 06:02:50;;;;;;;46.45;39.65;;;;;;;;;;5065311;28;20434;-79
2022/03/21 06:05:16;;;;;;;44.65;37.75;;;;;;;;;;5048266;28;20670;-79
2022/03/21 06:07:42;;;;;;;43.50;36.63;;;;;;;;;;5049367;28;20041;-78
2022/03/21 06:10:08;;;;;;;47.05;37.90;;;;;;;;;;5066617;28;20040;-79
2022/03/21 06:12:34;;;;;;;44.20;38.15;;;;;;;;;;5080350;28;20143;-79
2022/03/21 06:15:00;;;;;;;45.55;37.67;;;;;;;;;;5051857;28;20274;-79
2022/03/21 06:17:27;;;;;;;44.45;37.15;;;;;;;;;;5051480;28;20127;-79
2022/03/21 06:19:53;;;;;;;44.45;37.45;;;;;;;;;;5069578;28;20052;-80
2022/03/21 06:22:19;;;;;;;44.05;38.58;;;;;;;;;;5055132;28;20043;-78
2022/03/21 06:24:45;;;;;;;47.42;39.40;;;;;;;;;;5053723;28;20067;-79
2022/03/21 06:27:12;;;;;;;47.38;36.92;;;;;;;;;;5068828;28;20044;-79
2022/03/21 06:29:41;;;;;;;44.20;37.17;;;;;;;;;;5049047;28;20059;-80
2022/03/21 06:32:08;;;;;;;43.50;36.42;;;;;;;;;;5066116;28;20048;-80
2022/03/21 06:34:34;;;;;;;43.08;36.70;;;;;;;;;;5048927;28;20415;-80
2022/03/21 06:37:02;;;;;;;42.05;37.28;;;;;;;;;;5074774;28;20068;-79
2022/03/21 06:39:28;;;;;;;42.08;37.42;;;;;;;;;;5052248;28;20488;-79
2022/03/21 06:41:54;;;;;;;43.47;36.95;;;;;;;;;;5067427;28;20044;-79
2022/03/21 06:44:21;;;;;;;42.70;36.08;;;;;;;;;;5072293;28;20069;-79
2022/03/21 06:46:47;;;;;;;42.70;36.30;;;;;;;;;;5074949;28;20123;-79
2022/03/21 06:49:13;;;;;;;43.33;36.65;;;;;;;;;;5066182;28;20139;-80
2022/03/21 06:51:39;;;;;;;44.22;36.88;;;;;;;;;;5072421;28;20094;-80
2022/03/21 06:54:05;;;;;;;41.25;36.30;;;;;;;;;;5061428;28;20473;-81
2022/03/21 06:56:31;;;;;;;43.22;36.80;;;;;;;;;;5068434;28;20554;-81
2022/03/21 06:58:57;;;;;;;41.55;36.90;;;;;;;;;;5080131;28;20036;-80
2022/03/21 07:01:23;;;;;;;42.65;36.05;;;;;;;;;;5055873;28;20091;-81
2022/03/21 07:03:49;;;;;;;45.35;37.15;;;;;;;;;;5069066;28;20064;-80
2022/03/21 07:06:15;;;;;;;42.75;36.58;;;;;;;;;;5071354;28;20245;-80
2022/03/21 07:08:42;;;;;;;41.15;36.08;;;;;;;;;;5070711;28;20044;-80
2022/03/21 07:11:12;;;;;;;42.90;36.33;;;;;;;;;;5072245;28;20048;-80
2022/03/21 07:13:40;;;;;;;43.78;37.17;;;;;;;;;;5074663;28;20067;-81
2022/03/21 07:16:06;;;;;;;42.58;35.65;;;;;;;;;;5059835;28;20047;-80
2022/03/21 07:18:32;;;;;;;42.00;35.90;;;;;;;;;;5054516;28;20101;-80
2022/03/21 07:20:58;;;;;;;41.65;36.75;;;;;;;;;;5070130;28;20493;-80
2022/03/21 07:23:24;;;;;;;41.53;34.80;;;;;;;;;;5051991;28;20051;-80
2022/03/21 07:25:50;;;;;;;42.53;37.13;;;;;;;;;;5072924;28;20047;-81
2022/03/21 07:28:16;;;;;;;42.40;37.70;;;;;;;;;;5068887;28;20049;-79
2022/03/21 07:30:42;;;;;;;43.17;37.03;;;;;;;;;;5071584;28;20072;-79
2022/03/21 07:33:09;;;;;;;41.10;35.17;;;;;;;;;;5070198;28;20442;-80
2022/03/21 07:35:36;;;;;;;41.08;35.65;;;;;;;;;;5063012;28;20480;-80
2022/03/21 07:38:02;;;;;;;41.20;36.10;;;;;;;;;;5051932;28;20055;-79
2022/03/21 07:40:31;;;;;;;42.88;35.88;;;;;;;;;;5050556;28;20044;-81
2022/03/21 07:43:00;;;;;;;43.55;36.72;;;;;;;;;;5061191;28;20154;-81
2022/03/21 07:48:11;;;;;;;40.38;35.45;;;;;;;;;;5080209;28;20048;-81
2022/03/21 07:50:38;;;;;;;41.00;36.58;;;;;;;;;;5070601;28;20052;-82
2022/03/21 07:53:04;;;;;;;40.75;36.28;;;;;;;;;;5049567;28;20127;-81
2022/03/21 07:55:31;;;;;;;42.45;36.65;;;;;;;;;;5074239;28;20076;-80
2022/03/21 07:57:57;;;;;;;42.67;35.40;;;;;;;;;;5057355;28;20036;-81
2022/03/21 08:00:26;;;;;;;40.85;36.17;;;;;;;;;;5052337;28;20072;-81
2022/03/21 08:02:52;;;;;;;42.03;36.65;;;;;;;;;;5060149;28;20064;-82
2022/03/21 08:05:18;;;;;;;42.40;36.90;;;;;;;;;;5041904;28;20049;-82
2022/03/21 08:07:45;;;;;;;42.78;37.78;;;;;;;;;;5068357;28;20208;-81
2022/03/21 08:10:11;;;;;;;42.15;37.22;;;;;;;;;;5034725;28;20044;-81
2022/03/21 08:12:42;;;;;;;40.47;35.85;;;;;;;;;;5082162;28;20052;-81
2022/03/21 08:15:08;;;;;;;41.00;36.53;;;;;;;;;;5082570;28;20178;-81
2022/03/21 08:17:46;;;;;;;43.13;36.45;;;;;;;;;;5074379;28;20058;-81
2022/03/21 08:20:13;;;;;;;40.20;35.25;;;;;;;;;;5072108;28;20072;-81
2022/03/21 08:22:39;;;;;;;41.53;36.20;;;;;;;;;;5074063;28;20111;-81
2022/03/21 08:25:07;;;;;;;41.70;36.10;;;;;;;;;;5066288;28;20511;-82
2022/03/21 08:27:33;;;;;;;41.60;37.13;;;;;;;;;;5052076;28;20112;-82
2022/03/21 08:30:03;;;;;;;41.47;35.85;;;;;;;;;;5070501;28;20041;-80
2022/03/21 08:32:29;;;;;;;42.38;35.67;;;;;;;;;;5052987;28;20174;-80
2022/03/21 08:34:55;;;;;;;40.20;35.53;;;;;;;;;;5069913;28;20122;-81
2022/03/21 08:37:25;;;;;;;42.13;36.88;;;;;;;;;;5066889;28;20553;-81
2022/03/21 08:39:51;;;;;;;41.58;36.83;;;;;;;;;;5053268;28;20195;-81
2022/03/21 08:42:17;;;;;;;40.42;36.13;;;;;;;;;;5055821;28;20484;-81
2022/03/21 08:44:43;;;;;;;38.47;34.30;;;;;;;;;;5068678;28;20373;-81
2022/03/21 08:47:12;;;;;;;38.47;33.53;;;;;;;;;;5072094;28;20059;-81
2022/03/21 08:49:38;;;;;;;39.17;35.03;;;;;;;;;;5053956;28;20044;-81
2022/03/21 08:52:06;;;;;;;37.05;33.15;;;;;;;;;;5052554;28;20044;-81
2022/03/21 08:54:32;;;;;;;35.72;31.83;;;;;;;;;;5053125;28;20052;-82
2022/03/21 08:56:58;;;;;;;36.97;32.97;;;;;;;;;;5053983;28;20040;-82
2022/03/21 08:59:24;;;;;;;38.45;34.25;;;;;;;;;;5050217;28;20083;-82
2022/03/21 09:01:51;;;;;;;35.40;31.60;;;;;;;;;;5068061;28;20547;-82
2022/03/21 09:04:17;;;;;;;36.50;32.22;;;;;;;;;;5070907;28;20049;-82
2022/03/21 09:06:43;;;;;;;38.55;31.80;;;;;;;;;;5057380;28;20146;-81
2022/03/21 09:09:10;;;;;;;35.15;31.35;;;;;;;;;;5042993;28;20036;-81
2022/03/21 09:11:37;;;;;;;33.75;30.13;;;;;;;;;;5079231;28;20052;-81
2022/03/21 09:14:03;;;;;;;34.78;31.08;;;;;;;;;;5077836;28;20060;-81
2022/03/21 09:16:30;;;;;;;34.15;30.45;;;;;;;;;;5046357;28;20049;-82
2022/03/21 09:18:56;;;;;;;34.35;30.73;;;;;;;;;;5053942;28;20058;-80
2022/03/21 09:21:22;;;;;;;34.22;30.63;;;;;;;;;;5073633;28;20119;-81
2022/03/21 09:23:48;;;;;;;33.30;29.90;;;;;;;;;;5054607;28;20057;-80
2022/03/21 09:26:15;;;;;;;34.90;29.65;;;;;;;;;;5061994;28;20584;-81
2022/03/21 09:28:43;;;;;;;31.27;27.98;;;;;;;;;;5091614;28;20495;-81
2022/03/21 09:31:09;;;;;;;31.83;27.63;;;;;;;;;;5068787;28;20060;-81
2022/03/21 09:33:36;;;;;;;33.75;30.00;;;;;;;;;;5033209;28;20378;-81
2022/03/21 09:36:04;;;;;;;32.88;29.42;;;;;;;;;;5050826;28;20156;-81
2022/03/21 09:38:31;;;;;;;30.88;27.63;;;;;;;;;;5044885;28;20048;-81
2022/03/21 09:40:58;;;;;;;31.25;27.85;;;;;;;;;;5051235;28;20037;-81
2022/03/21 09:43:24;;;;;;;30.50;27.20;;;;;;;;;;5050074;28;20131;-81
2022/03/21 09:45:51;;;;;;;30.02;26.88;;;;;;;;;;5056171;28;20048;-82
2022/03/21 09:48:19;;;;;;;29.40;26.23;;;;;;;;;;5079834;28;20097;-82
2022/03/21 09:50:46;;;;;;;31.10;27.80;;;;;;;;;;5056595;28;20369;-81
2022/03/21 09:53:16;;;;;;;28.52;25.52;;;;;;;;;;5054046;28;20041;-81
2022/03/21 09:55:43;;;;;;;28.15;25.17;;;;;;;;;;5091094;28;20108;-81
2022/03/21 09:58:12;;;;;;;27.77;24.88;;;;;;;;;;5076912;28;20052;-81
2022/03/21 10:00:42;;;;;;;28.85;25.85;;;;;;;;;;5081425;28;20100;-79
2022/03/21 10:03:09;;;;;;;27.98;23.95;;;;;;;;;;5075137;28;20431;-81
2022/03/21 10:05:36;;;;;;;24.70;21.90;;;;;;;;;;5073155;28;20064;-81
2022/03/21 10:08:21;;;;;;;25.20;21.85;;;;;;;;;;5074223;28;20051;-81
2022/03/21 10:10:51;;;;;;;24.00;21.48;;;;;;;;;;5071211;28;20037;-80
2022/03/21 10:13:18;;;;;;;25.52;22.77;;;;;;;;;;5054116;28;20060;-79
2022/03/21 10:15:44;;;;;;;26.60;23.80;;;;;;;;;;5036165;28;20370;-80
2022/03/21 10:18:11;;;;;;;24.42;21.85;;;;;;;;;;5053617;28;20060;-81
2022/03/21 10:20:37;;;;;;;23.27;20.77;;;;;;;;;;5037426;28;20037;-81
2022/03/21 10:23:23;;;;;;;24.63;21.95;;;;;;;;;;5035611;28;20136;-81
2022/03/21 10:25:49;;;;;;;22.17;19.75;;;;;;;;;;5040010;28;20044;-81
2022/03/21 10:28:35;;;;;;;20.25;18.05;;;;;;;;;;5075412;28;20076;-82
2022/03/21 10:31:02;;;;;;;21.92;18.30;;;;;;;;;;5038956;28;20052;-81
2022/03/21 10:33:28;;;;;;;21.77;18.92;;;;;;;;;;5034361;28;20118;-82
2022/03/21 10:35:54;;;;;;;20.40;18.17;;;;;;;;;;5036209;28;20041;-81
2022/03/21 10:38:51;;;;;;;22.77;20.50;;;;;;;;;;5053330;28;20501;-81
2022/03/21 10:41:17;;;;;;;23.98;21.48;;;;;;;;;;5013977;28;20405;-81
2022/03/21 10:43:53;;;;;;;25.17;22.05;;;;;;;;;;5016816;28;20038;-81
2022/03/21 10:46:21;;;;;;;25.45;22.80;;;;;;;;;;5047393;28;20079;-81
2022/03/21 10:49:00;;;;;;;23.58;21.17;;;;;;;;;;5051654;28;20040;-81
2022/03/21 10:51:26;;;;;;;21.50;19.30;;;;;;;;;;5034460;28;20040;-81
2022/03/21 10:53:53;;;;;;;19.55;17.55;;;;;;;;;;5051347;28;20523;-81
2022/03/21 10:56:20;;;;;;;20.30;18.27;;;;;;;;;;5038725;28;20041;-81
2022/03/21 10:58:47;;;;;;;20.13;18.00;;;;;;;;;;5034329;28;20073;-81
2022/03/21 11:01:14;;;;;;;22.20;19.55;;;;;;;;;;5027487;28;20052;-81
2022/03/21 11:03:41;;;;;;;23.45;20.83;;;;;;;;;;5034069;28;20500;-82
2022/03/21 11:06:11;;;;;;;22.05;19.70;;;;;;;;;;5022925;28;20092;-82
2022/03/21 11:08:37;;;;;;;20.77;17.95;;;;;;;;;;5047192;28;20052;-82
2022/03/21 11:11:04;;;;;;;19.17;17.20;;;;;;;;;;5056386;28;20057;-82
2022/03/21 11:13:31;;;;;;;20.17;17.98;;;;;;;;;;5047820;28;20049;-82
2022/03/21 11:15:57;;;;;;;20.27;18.08;;;;;;;;;;5069269;28;20048;-82
2022/03/21 11:18:23;;;;;;;19.45;17.45;;;;;;;;;;5064988;28;20041;-82
2022/03/21 11:20:50;;;;;;;21.08;18.70;;;;;;;;;;5062393;28;20066;-82
2022/03/21 11:23:17;;;;;;;21.73;19.42;;;;;;;;;;5054076;28;20405;-82
2022/03/21 11:25:46;;;;;;;20.15;17.90;;;;;;;;;;5042933;28;20048;-81
2022/03/21 11:28:21;;;;;;;20.50;18.30;;;;;;;;;;5059147;28;20045;-82
2022/03/21 11:30:56;;;;;;;19.88;17.80;;;;;;;;;;5052145;28;20041;-81
2022/03/21 11:33:37;;;;;;;19.70;17.70;;;;;;;;;;5053865;28;20044;-82
2022/03/21 11:36:05;;;;;;;21.23;17.95;;;;;;;;;;5052028;28;20052;-81
2022/03/21 11:38:35;;;;;;;19.95;17.95;;;;;;;;;;5061747;28;20102;-81
2022/03/21 11:41:15;;;;;;;21.23;17.00;;;;;;;;;;5066769;28;20053;-81
2022/03/21 11:43:42;;;;;;;19.52;17.52;;;;;;;;;;5054638;28;20040;-81
2022/03/21 11:46:30;;;;;;;19.40;17.40;;;;;;;;;;5055823;28;20051;-81
2022/03/21 11:49:01;;;;;;;19.40;17.20;;;;;;;;;;5071685;28;20041;-81
2022/03/21 11:51:38;;;;;;;18.90;16.83;;;;;;;;;;5049469;28;20087;-81
2022/03/21 11:54:06;;;;;;;18.48;16.17;;;;;;;;;;5060526;28;20049;-82
2022/03/21 11:56:43;;;;;;;19.58;17.02;;;;;;;;;;5057517;28;20040;-81
2022/03/21 11:59:10;;;;;;;18.75;16.13;;;;;;;;;;5048074;28;20395;-81
2022/03/21 12:01:36;;;;;;;18.35;16.23;;;;;;;;;;5048483;28;20400;-81
2022/03/21 12:04:20;;;;;;;18.17;15.75;;;;;;;;;;5054005;28;20048;-82
2022/03/21 12:06:46;;;;;;;20.30;16.70;;;;;;;;;;5053487;28;20040;-81
2022/03/21 12:09:15;;;;;;;17.52;15.32;;;;;;;;;;5063184;22;20042;-81
2022/03/21 12:11:43;;;;;;;19.17;15.98;;;;;;;;;;5031073;28;20050;-82
2022/03/21 12:14:29;;;;;;;18.17;15.73;;;;;;;;;;5027802;28;20096;-82
2022/03/21 12:17:01;;;;;;;17.27;14.88;;;;;;;;;;5001932;28;20504;-82
2022/03/21 12:19:48;;;;;;;15.77;13.98;;;;;;;;;;5011481;28;20056;-83
2022/03/21 12:22:43;;;;;;;16.02;14.35;;;;;;;;;;5003112;28;20065;-81
2022/03/21 12:25:16;;;;;;;15.40;13.43;;;;;;;;;;5014425;28;20042;-82
2022/03/21 12:27:44;;;;;;;15.18;13.60;;;;;;;;;;5014130;28;20049;-81
2022/03/21 12:30:31;;;;;;;13.02;11.60;;;;;;;;;;5032819;28;20494;-82
2022/03/21 12:33:12;;;;;;;16.45;14.75;;;;;;;;;;5030232;28;20481;-82
2022/03/21 12:35:47;;;;;;;17.23;15.35;;;;;;;;;;5012758;28;20041;-83
2022/03/21 12:38:22;;;;;;;20.13;16.20;;;;;;;;;;5013876;28;20048;-82
2022/03/21 12:40:52;;;;;;;17.30;15.25;;;;;;;;;;5016774;28;20041;-82
2022/03/21 12:43:22;;;;;;;18.45;16.10;;;;;;;;;;5014043;28;20050;-82
2022/03/21 12:45:49;;;;;;;17.27;15.48;;;;;;;;;;5031312;28;20048;-83
2022/03/21 12:48:17;;;;;;;18.60;16.08;;;;;;;;;;5014510;28;20048;-82
2022/03/21 12:50:47;;;;;;;18.27;15.70;;;;;;;;;;5029548;28;20509;-82
2022/03/21 12:53:19;;;;;;;18.25;15.07;;;;;;;;;;5027546;28;20461;-82
2022/03/21 12:55:46;;;;;;;16.13;14.05;;;;;;;;;;5013642;28;20041;-82
2022/03/21 12:58:13;;;;;;;17.45;15.10;;;;;;;;;;5021353;28;20128;-83
2022/03/21 13:00:44;;;;;;;16.77;15.07;;;;;;;;;;5031729;28;20088;-83
2022/03/21 13:03:11;;;;;;;15.63;13.90;;;;;;;;;;5032570;28;20362;-81
2022/03/21 13:11:21;;;;;;;15.48;13.77;;;;;;;;;;5033256;28;20592;-81
2022/03/21 13:13:53;;;;;;;17.70;14.25;;;;;;;;;;5014274;28;20057;-81
2022/03/21 13:16:20;;;;;;;14.80;12.95;;;;;;;;;;5026897;28;20107;-82
2022/03/21 13:18:46;;;;;;;15.77;13.65;;;;;;;;;;5031164;28;20045;-81
2022/03/21 13:21:12;;;;;;;14.48;12.70;;;;;;;;;;5028084;28;20418;-82
2022/03/21 13:23:38;;;;;;;14.63;13.02;;;;;;;;;;5012347;28;20072;-82
2022/03/21 13:26:10;;;;;;;13.88;12.45;;;;;;;;;;5014460;28;20053;-82
2022/03/21 13:28:38;;;;;;;13.30;11.90;;;;;;;;;;4995285;28;20045;-82
2022/03/21 13:31:09;;;;;;;12.38;11.13;;;;;;;;;;5012147;28;20054;-82
2022/03/21 13:33:35;;;;;;;14.07;12.57;;;;;;;;;;5024504;28;20115;-82
2022/03/21 13:36:03;;;;;;;13.57;11.65;;;;;;;;;;5012886;28;20075;-82
2022/03/21 13:38:30;;;;;;;14.85;11.88;;;;;;;;;;5025099;28;20113;-82
2022/03/21 13:40:56;;;;;;;12.02;10.75;;;;;;;;;;5002613;28;20088;-84
2022/03/21 13:43:26;;;;;;;11.95;10.73;;;;;;;;;;5030842;28;20065;-84
2022/03/21 13:45:52;;;;;;;14.60;10.27;;;;;;;;;;5017960;28;20052;-83
2022/03/21 13:48:33;;;;;;;12.77;10.68;;;;;;;;;;5012574;28;20054;-85
2022/03/21 13:51:17;;;;;;;9.75;8.48;;;;;;;;;;5002928;28;20042;-84
2022/03/21 13:53:43;;;;;;;9.45;8.45;;;;;;;;;;5005432;28;20050;-83
2022/03/21 13:56:09;;;;;;;9.93;8.93;;;;;;;;;;5037785;28;20071;-88
2022/03/21 13:58:37;;;;;;;10.32;9.05;;;;;;;;;;5028134;28;20042;-88
2022/03/21 14:01:03;;;;;;;10.70;9.57;;;;;;;;;;5008916;28;20046;-91
2022/03/21 14:03:39;;;;;;;9.68;8.50;;;;;;;;;;5015870;28;20034;-85
2022/03/21 14:06:07;;;;;;;9.65;8.75;;;;;;;;;;5018753;28;20041;-86
2022/03/21 14:08:33;;;;;;;9.20;8.30;;;;;;;;;;5012399;28;20563;-85
2022/03/21 14:11:22;;;;;;;9.82;8.13;;;;;;;;;;5022982;28;20129;-86
2022/03/21 14:13:53;;;;;;;11.88;8.88;;;;;;;;;;5028484;28;20061;-85
2022/03/21 14:16:19;;;;;;;9.95;8.73;;;;;;;;;;5032688;28;20069;-86
2022/03/21 14:18:58;;;;;;;9.32;8.43;;;;;;;;;;5030988;28;20501;-85
2022/03/21 14:21:24;;;;;;;8.95;8.05;;;;;;;;;;5016078;28;20107;-86
2022/03/21 14:23:50;;;;;;;8.52;7.72;;;;;;;;;;5028080;28;20064;-85
2022/03/21 14:26:37;;;;;;;8.52;7.72;;;;;;;;;;5035016;28;20109;-85
2022/03/21 14:29:05;;;;;;;8.25;6.97;;;;;;;;;;5013237;28;20493;-86
2022/03/21 14:31:31;;;;;;;7.40;6.70;;;;;;;;;;5035549;28;20049;-86
2022/03/21 14:33:57;;;;;;;8.65;7.10;;;;;;;;;;5039244;28;20041;-86
2022/03/21 14:36:23;;;;;;;7.22;6.53;;;;;;;;;;5022460;28;20051;-81
2022/03/21 14:38:49;;;;;;;7.40;6.70;;;;;;;;;;5036491;28;20049;-85
2022/03/21 14:41:20;;;;;;;7.25;6.55;;;;;;;;;;5021983;28;20046;-85
2022/03/21 14:43:46;;;;;;;7.32;6.63;;;;;;;;;;5027528;28;20052;-85
2022/03/21 14:46:13;;;;;;;7.20;6.60;;;;;;;;;;5032235;28;20045;-85
2022/03/21 14:48:39;;;;;;;7.47;6.78;;;;;;;;;;5033814;28;20045;-84
2022/03/21 14:51:05;;;;;;;10.45;7.50;;;;;;;;;;5006556;28;20038;-84
2022/03/21 14:53:31;;;;;;;7.03;6.38;;;;;;;;;;5019287;28;20687;-85